Weber City, Virginia
Current Conditions -  °F | °C
As of 9:53 PM on Saturday 25 Oct 2014 (Local Time) from KTRI Reporting Station
Few Clouds Few Clouds  
Wind Chill: 57°   Ceiling: Unl
Heat Index: 57°   Visibility: 10mi
Dew Point: 48°   Wind: 5mph
Humidity: 72%   Direction: 240°WSW
Pressure: 30.01"   Gusts: NA
Location:  36.62°N, 82.56°W
Report Text: KTRI 260153Z 24004KT 10SM FEW032 14/09 A3001 RMK AO2 SLP152 T01390089
Loading
Personal Weather Stations






























Interactive Weather Map
Tropical Storm Tracking
New forecast layout! Learn more

10-Day Weather Forecast

Advertisements
Track Severe Weather on mobile